Serendipity II — ZCIP — position and weather

sailwx.info

Track history (hours):
 
Tides and Currents Weather Stations Pressure Air Temp Water Temp Dewpoint Dewpoint Depression Visibility Wind Speed Wind Dir Waves Ship Positions

Serendipity II

Last reported at 2015-May-25 12:32 UTC. Time now 2015-May-25 13:26 UTC.
Position N 26°07' W 080°06'.

Length 39 m.

Type: Pleasure craft. MMSI: 319848000.

Date/timePositionNaut miles runAvg speedWind from/ knotsBaromVisibWave heightAir tempDewpointWater temp
2015-May-25 12:32N 26°07' W 080°06'0 0.0
2015-May-25 11:32N 26°07' W 080°06'0 0.0
2015-May-25 10:32N 26°07' W 080°06'0 0.0
2015-May-25 09:32N 26°07' W 080°06'0 0.0
2015-May-25 08:23N 26°07' W 080°06'0 0.0
2015-May-25 07:23N 26°07' W 080°06'0 0.0
2015-May-25 06:11N 26°07' W 080°06'0 0.0
2015-May-25 05:29N 26°07' W 080°06'0 0.0
2015-May-25 04:29N 26°07' W 080°06'0 0.0
2015-May-25 03:29N 26°07' W 080°06'0 0.0
2015-May-25 02:32N 26°07' W 080°06'0 0.0
2015-May-25 01:29N 26°07' W 080°06'0 0.0
2015-May-25 00:32N 26°07' W 080°06'0 0.0
2015-May-24 23:32N 26°07' W 080°06'0 0.0
2015-May-24 22:32N 26°07' W 080°06'0 0.0
2015-May-24 21:23N 26°07' W 080°06'0 0.0
2015-May-24 20:23N 26°07' W 080°06'0 0.0
2015-May-24 19:26N 26°07' W 080°06'0 0.0
2015-May-24 18:21N 26°07' W 080°06'0 0.0
2015-May-24 17:33N 26°07' W 080°06'0 0.0
2015-May-24 16:20N 26°07' W 080°06'0 0.0
2015-May-24 15:32N 26°07' W 080°06'0 0.0
2015-May-24 14:32N 26°07' W 080°06'0 0.0
2015-May-24 13:23N 26°07' W 080°06'0 0.0
2015-May-24 12:26N 26°07' W 080°06'0 0.0
2015-May-24 11:26N 26°07' W 080°06'0 0.0
2015-May-24 10:26N 26°07' W 080°06'0 0.0
2015-May-24 09:26N 26°07' W 080°06'0 0.0
2015-May-24 08:26N 26°07' W 080°06'0 0.0
2015-May-24 07:32N 26°07' W 080°06'0 0.0
2015-May-24 06:32N 26°07' W 080°06'0 0.0
2015-May-24 05:32N 26°07' W 080°06'0 0.0
2015-May-24 04:32N 26°07' W 080°06'0 0.0
2015-May-24 03:32N 26°07' W 080°06'0 0.0
2015-May-24 02:23N 26°07' W 080°06'0 0.0
2015-May-24 01:32N 26°07' W 080°06'0 0.0
2015-May-24 00:21N 26°07' W 080°06'0 0.0
2015-May-23 23:26N 26°07' W 080°06'0 0.0
2015-May-23 22:26N 26°07' W 080°06'0 0.0
2015-May-23 21:29N 26°07' W 080°06'0 0.0
2015-May-23 20:29N 26°07' W 080°06'0 0.0
2015-May-23 19:26N 26°07' W 080°06'0 0.0
2015-May-23 18:32N 26°07' W 080°06'0 0.0
2015-May-23 17:32N 26°07' W 080°06'0 0.0
2015-May-23 16:26N 26°07' W 080°06'1 0.9
2015-May-23 15:32N 26°06' W 080°07'6 5.7
2015-May-23 14:33N 26°02' W 080°03'4 3.5
2015-May-23 13:31N 26°05' W 080°05'2 1.5
2015-May-23 12:11N 26°07' W 080°06'0 0.0
2015-May-23 11:23N 26°07' W 080°06'0 0.0
2015-May-23 10:29N 26°07' W 080°06'0 0.0
2015-May-23 09:11N 26°07' W 080°06'0 0.0
2015-May-23 08:29N 26°07' W 080°06'0 0.0
2015-May-23 07:33N 26°07' W 080°06'0 0.0
2015-May-23 06:29N 26°07' W 080°06'0 0.0
2015-May-23 05:29N 26°07' W 080°06'0 0.0
2015-May-23 04:29N 26°07' W 080°06'0 0.0
2015-May-23 03:17N 26°07' W 080°06'0 0.0
2015-May-23 02:29N 26°07' W 080°06'0 0.0
2015-May-23 01:26N 26°07' W 080°06'0 0.0
2015-May-23 00:32N 26°07' W 080°06'2 2.3
2015-May-22 23:30N 26°07' W 080°09'1 1.3
2015-May-22 22:32N 26°06' W 080°10'0 0.0
2015-May-22 21:32N 26°06' W 080°10'0 0.1
2015-May-22 20:32N 26°06' W 080°10'0 0.0
2015-May-22 18:17N 26°06' W 080°10'0 0.0
2015-May-22 17:25N 26°06' W 080°10'0 0.0
2015-May-22 16:12N 26°06' W 080°10'0 0.0
2015-May-22 14:33N 26°06' W 080°10'0 0.1
2015-May-22 13:27N 26°06' W 080°10'0 0.0
2015-May-22 06:06N 26°06' W 080°10'0 0.0
2015-May-22 04:11N 26°06' W 080°10'0 0.1
2015-May-22 03:13N 26°06' W 080°10'0 0.2
2015-May-22 02:33N 26°06' W 080°10'0 0.0
2015-May-22 01:32N 26°06' W 080°10'0 0.0
2015-May-21 20:28N 26°06' W 080°10'0 0.0
2015-May-21 17:31N 26°06' W 080°10'0 0.1
2015-May-21 15:17N 26°06' W 080°10'0 0.2
2015-May-21 14:13N 26°06' W 080°10'0 0.0
2015-May-20 14:13N 26°06' W 080°10'0 0.0
2015-May-20 09:25N 26°06' W 080°10'0 0.0
2015-May-20 06:04N 26°06' W 080°10'0 0.0
2015-May-19 21:11N 26°06' W 080°10'0 0.0
2015-May-19 20:07N 26°06' W 080°10'0 0.0
2015-May-19 19:18N 26°06' W 080°10'0 0.1
2015-May-19 18:16N 26°06' W 080°10'0 0.1
2015-May-19 17:26N 26°06' W 080°10'4 3.8
2015-May-19 16:27N 26°02' W 080°10'4 1.0
2015-May-19 12:33N 26°06' W 080°10'0 0.0
2015-May-19 09:14N 26°06' W 080°10'0 0.0
2015-May-19 06:19N 26°06' W 080°10'0 0.1
2015-May-19 04:20N 26°06' W 080°10'0 0.2
2015-May-19 03:13N 26°06' W 080°10'0 0.1
2015-May-19 01:26N 26°06' W 080°10'0 0.1
2015-May-18 23:13N 26°06' W 080°09'0 0.1
2015-May-18 21:20N 26°06' W 080°10'0 0.0
2015-May-18 20:06N 26°06' W 080°10'0 0.0
2015-May-18 19:17N 26°06' W 080°10'0 0.0
2015-May-18 17:29N 26°06' W 080°10'0 0.0
2015-May-18 14:25N 26°06' W 080°10'0 0.1
2015-May-18 13:10N 26°06' W 080°10'0 0.0
2015-May-18 06:19N 26°06' W 080°10'0 0.0
2015-May-17 20:30N 26°06' W 080°10'0 0.0
2015-May-17 15:05N 26°06' W 080°10'0 0.0
2015-May-17 14:09N 26°06' W 080°10'0 0.0
2015-May-17 05:07N 26°06' W 080°10'0 0.0
2015-May-17 02:13N 26°06' W 080°10'1 0.1
2015-May-16 18:28N 26°06' W 080°10'1 0.2
2015-May-16 15:24N 26°06' W 080°10'0 0.0
2015-May-16 14:27N 26°06' W 080°10'0 0.0
2015-May-16 13:13N 26°06' W 080°10'0 0.0
2015-May-16 06:10N 26°06' W 080°10'0 0.1
2015-May-16 04:28N 26°06' W 080°10'0 0.0
2015-May-15 13:09N 26°06' W 080°10'  
Track history (hours):
 
Tides and Currents Weather Stations Pressure Air Temp Water Temp Dewpoint Dewpoint Depression Visibility Wind Speed Wind Dir Waves Ship Positions

Serendipity II

Last reported at 2015-May-25 12:32 UTC. Time now 2015-May-25 13:26 UTC.
Position N 26°07' W 080°06'.

Length 39 m.

Type: Pleasure craft. MMSI: 319848000.

Date/timePositionNaut miles runAvg speedWind from/ knotsBaromVisibWave heightAir tempDewpointWater temp
2015-May-25 12:32N 26°07' W 080°06'0 0.0
2015-May-25 11:32N 26°07' W 080°06'0 0.0
2015-May-25 10:32N 26°07' W 080°06'0 0.0
2015-May-25 09:32N 26°07' W 080°06'0 0.0
2015-May-25 08:23N 26°07' W 080°06'0 0.0
2015-May-25 07:23N 26°07' W 080°06'0 0.0
2015-May-25 06:11N 26°07' W 080°06'0 0.0
2015-May-25 05:29N 26°07' W 080°06'0 0.0
2015-May-25 04:29N 26°07' W 080°06'0 0.0
2015-May-25 03:29N 26°07' W 080°06'0 0.0
2015-May-25 02:32N 26°07' W 080°06'0 0.0
2015-May-25 01:29N 26°07' W 080°06'0 0.0
2015-May-25 00:32N 26°07' W 080°06'0 0.0
2015-May-24 23:32N 26°07' W 080°06'0 0.0
2015-May-24 22:32N 26°07' W 080°06'0 0.0
2015-May-24 21:23N 26°07' W 080°06'0 0.0
2015-May-24 20:23N 26°07' W 080°06'0 0.0
2015-May-24 19:26N 26°07' W 080°06'0 0.0
2015-May-24 18:21N 26°07' W 080°06'0 0.0
2015-May-24 17:33N 26°07' W 080°06'0 0.0
2015-May-24 16:20N 26°07' W 080°06'0 0.0
2015-May-24 15:32N 26°07' W 080°06'0 0.0
2015-May-24 14:32N 26°07' W 080°06'0 0.0
2015-May-24 13:23N 26°07' W 080°06'0 0.0
2015-May-24 12:26N 26°07' W 080°06'0 0.0
2015-May-24 11:26N 26°07' W 080°06'0 0.0
2015-May-24 10:26N 26°07' W 080°06'0 0.0
2015-May-24 09:26N 26°07' W 080°06'0 0.0
2015-May-24 08:26N 26°07' W 080°06'0 0.0
2015-May-24 07:32N 26°07' W 080°06'0 0.0
2015-May-24 06:32N 26°07' W 080°06'0 0.0
2015-May-24 05:32N 26°07' W 080°06'0 0.0
2015-May-24 04:32N 26°07' W 080°06'0 0.0
2015-May-24 03:32N 26°07' W 080°06'0 0.0
2015-May-24 02:23N 26°07' W 080°06'0 0.0
2015-May-24 01:32N 26°07' W 080°06'0 0.0
2015-May-24 00:21N 26°07' W 080°06'0 0.0
2015-May-23 23:26N 26°07' W 080°06'0 0.0
2015-May-23 22:26N 26°07' W 080°06'0 0.0
2015-May-23 21:29N 26°07' W 080°06'0 0.0
2015-May-23 20:29N 26°07' W 080°06'0 0.0
2015-May-23 19:26N 26°07' W 080°06'0 0.0
2015-May-23 18:32N 26°07' W 080°06'0 0.0
2015-May-23 17:32N 26°07' W 080°06'0 0.0
2015-May-23 16:26N 26°07' W 080°06'1 0.9
2015-May-23 15:32N 26°06' W 080°07'6 5.7
2015-May-23 14:33N 26°02' W 080°03'4 3.5
2015-May-23 13:31N 26°05' W 080°05'2 1.5
2015-May-23 12:11N 26°07' W 080°06'0 0.0
2015-May-23 11:23N 26°07' W 080°06'0 0.0
2015-May-23 10:29N 26°07' W 080°06'0 0.0
2015-May-23 09:11N 26°07' W 080°06'0 0.0
2015-May-23 08:29N 26°07' W 080°06'0 0.0
2015-May-23 07:33N 26°07' W 080°06'0 0.0
2015-May-23 06:29N 26°07' W 080°06'0 0.0
2015-May-23 05:29N 26°07' W 080°06'0 0.0
2015-May-23 04:29N 26°07' W 080°06'0 0.0
2015-May-23 03:17N 26°07' W 080°06'0 0.0
2015-May-23 02:29N 26°07' W 080°06'0 0.0
2015-May-23 01:26N 26°07' W 080°06'0 0.0
2015-May-23 00:32N 26°07' W 080°06'2 2.3
2015-May-22 23:30N 26°07' W 080°09'1 1.3
2015-May-22 22:32N 26°06' W 080°10'0 0.0
2015-May-22 21:32N 26°06' W 080°10'0 0.1
2015-May-22 20:32N 26°06' W 080°10'0 0.0
2015-May-22 18:17N 26°06' W 080°10'0 0.0
2015-May-22 17:25N 26°06' W 080°10'0 0.0
2015-May-22 16:12N 26°06' W 080°10'0 0.0
2015-May-22 14:33N 26°06' W 080°10'0 0.1
2015-May-22 13:27N 26°06' W 080°10'0 0.0
2015-May-22 06:06N 26°06' W 080°10'0 0.0
2015-May-22 04:11N 26°06' W 080°10'0 0.1
2015-May-22 03:13N 26°06' W 080°10'0 0.2
2015-May-22 02:33N 26°06' W 080°10'0 0.0
2015-May-22 01:32N 26°06' W 080°10'0 0.0
2015-May-21 20:28N 26°06' W 080°10'0 0.0
2015-May-21 17:31N 26°06' W 080°10'0 0.1
2015-May-21 15:17N 26°06' W 080°10'0 0.2
2015-May-21 14:13N 26°06' W 080°10'0 0.0
2015-May-20 14:13N 26°06' W 080°10'0 0.0
2015-May-20 09:25N 26°06' W 080°10'0 0.0
2015-May-20 06:04N 26°06' W 080°10'0 0.0
2015-May-19 21:11N 26°06' W 080°10'0 0.0
2015-May-19 20:07N 26°06' W 080°10'0 0.0
2015-May-19 19:18N 26°06' W 080°10'0 0.1
2015-May-19 18:16N 26°06' W 080°10'0 0.1
2015-May-19 17:26N 26°06' W 080°10'4 3.8
2015-May-19 16:27N 26°02' W 080°10'4 1.0
2015-May-19 12:33N 26°06' W 080°10'0 0.0
2015-May-19 09:14N 26°06' W 080°10'0 0.0
2015-May-19 06:19N 26°06' W 080°10'0 0.1
2015-May-19 04:20N 26°06' W 080°10'0 0.2
2015-May-19 03:13N 26°06' W 080°10'0 0.1
2015-May-19 01:26N 26°06' W 080°10'0 0.1
2015-May-18 23:13N 26°06' W 080°09'0 0.1
2015-May-18 21:20N 26°06' W 080°10'0 0.0
2015-May-18 20:06N 26°06' W 080°10'0 0.0
2015-May-18 19:17N 26°06' W 080°10'0 0.0
2015-May-18 17:29N 26°06' W 080°10'0 0.0
2015-May-18 14:25N 26°06' W 080°10'0 0.1
2015-May-18 13:10N 26°06' W 080°10'0 0.0
2015-May-18 06:19N 26°06' W 080°10'0 0.0
2015-May-17 20:30N 26°06' W 080°10'0 0.0
2015-May-17 15:05N 26°06' W 080°10'0 0.0
2015-May-17 14:09N 26°06' W 080°10'0 0.0
2015-May-17 05:07N 26°06' W 080°10'0 0.0
2015-May-17 02:13N 26°06' W 080°10'1 0.1
2015-May-16 18:28N 26°06' W 080°10'1 0.2
2015-May-16 15:24N 26°06' W 080°10'0 0.0
2015-May-16 14:27N 26°06' W 080°10'0 0.0
2015-May-16 13:13N 26°06' W 080°10'0 0.0
2015-May-16 06:10N 26°06' W 080°10'0 0.1
2015-May-16 04:28N 26°06' W 080°10'0 0.0
2015-May-15 13:09N 26°06' W 080°10'  

Dump ship's entire track history